Time;durP1;ratioP1;P1;durP2;ratioP2;P2;SDS_P1;SDS_P2;PMS_P1;PMS_P2;Temp;Humidity;BMP_temperature;BMP_pressure;BME280_temperature;BME280_humidity;BME280_pressure;Samples;Min_cycle;Max_cycle;Signal;HPM_P1;HPM_P2
2023/08/17 00:01:47;;;;;;;15.77;12.07;;;18.50;81.60;;;;;;5008211;28;20484;-79
2023/08/17 00:04:13;;;;;;;14.77;12.27;;;18.50;81.70;;;;;;5017606;28;20037;-80
2023/08/17 00:06:39;;;;;;;14.18;12.68;;;18.50;81.90;;;;;;5015925;28;20029;-79
2023/08/17 00:09:06;;;;;;;14.30;12.80;;;18.40;81.90;;;;;;4997194;28;20077;-78
2023/08/17 00:11:32;;;;;;;16.83;13.15;;;18.40;82.00;;;;;;4992088;28;20566;-79
2023/08/17 00:13:58;;;;;;;15.73;12.95;;;18.40;82.20;;;;;;4997652;28;20033;-80
2023/08/17 00:16:24;;;;;;;14.32;12.88;;;18.30;82.50;;;;;;5007875;28;20033;-79
2023/08/17 00:18:49;;;;;;;15.88;13.73;;;18.30;82.60;;;;;;5006234;28;20034;-79
2023/08/17 00:21:15;;;;;;;15.60;12.77;;;18.30;82.90;;;;;;4986144;28;20378;-79
2023/08/17 00:23:41;;;;;;;18.10;13.85;;;18.30;83.10;;;;;;4989578;28;20127;-79
2023/08/17 00:26:08;;;;;;;16.95;13.80;;;18.20;83.10;;;;;;5008457;28;20069;-80
2023/08/17 00:28:33;;;;;;;15.38;13.77;;;18.20;83.40;;;;;;5015889;28;20041;-80
2023/08/17 00:31:00;;;;;;;15.85;14.18;;;18.20;83.50;;;;;;5011714;28;20042;-80
2023/08/17 00:33:25;;;;;;;16.77;14.98;;;18.20;83.80;;;;;;5005882;28;20037;-79
2023/08/17 00:35:51;;;;;;;18.15;16.15;;;18.10;84.00;;;;;;5005436;28;20525;-79
2023/08/17 00:38:17;;;;;;;18.23;15.80;;;18.10;84.10;;;;;;5001360;28;20022;-79
2023/08/17 00:40:43;;;;;;;16.40;14.73;;;18.10;84.40;;;;;;4995783;28;20030;-78
2023/08/17 00:43:09;;;;;;;19.80;15.43;;;18.10;84.40;;;;;;4994230;28;20018;-78
2023/08/17 00:45:35;;;;;;;18.45;15.60;;;18.10;84.80;;;;;;4982255;28;20037;-79
2023/08/17 00:48:01;;;;;;;18.30;16.00;;;18.10;84.90;;;;;;4988920;28;20018;-77
2023/08/17 00:50:28;;;;;;;17.38;15.57;;;18.10;85.10;;;;;;4997286;28;21091;-78
2023/08/17 00:52:55;;;;;;;17.90;16.05;;;18.00;85.20;;;;;;4993838;28;20034;-78
2023/08/17 00:55:22;;;;;;;17.70;15.35;;;18.00;85.30;;;;;;4990451;28;20386;-78
2023/08/17 00:57:47;;;;;;;16.30;14.57;;;18.00;85.40;;;;;;4990993;28;20111;-78
2023/08/17 01:00:14;;;;;;;17.40;15.70;;;18.10;85.60;;;;;;4989300;28;20489;-78
2023/08/17 01:02:41;;;;;;;16.92;15.15;;;18.00;85.70;;;;;;5001189;28;20492;-78
2023/08/17 01:05:07;;;;;;;16.65;15.00;;;18.00;85.80;;;;;;4992924;28;20483;-78
2023/08/17 01:07:33;;;;;;;16.77;15.02;;;18.00;85.90;;;;;;4994093;28;20022;-78
2023/08/17 01:10:01;;;;;;;17.20;15.40;;;18.00;85.90;;;;;;4993273;28;20038;-78
2023/08/17 01:12:51;;;;;;;16.27;14.57;;;18.00;85.90;;;;;;4992446;28;20061;-77
2023/08/17 01:15:23;;;;;;;17.35;15.60;;;18.00;86.10;;;;;;5009654;28;20378;-78
2023/08/17 01:18:16;;;;;;;15.65;14.00;;;18.00;86.20;;;;;;5016606;28;20022;-78
2023/08/17 01:20:43;;;;;;;16.85;14.05;;;17.90;86.40;;;;;;5010695;28;20126;-78
2023/08/17 01:23:09;;;;;;;18.70;15.27;;;17.90;86.60;;;;;;5014625;28;20116;-79
2023/08/17 01:25:36;;;;;;;16.08;14.38;;;17.90;86.60;;;;;;5001336;28;20502;-78
2023/08/17 01:28:03;;;;;;;17.08;14.35;;;17.90;86.70;;;;;;5020847;28;20032;-78
2023/08/17 01:30:33;;;;;;;17.40;13.85;;;17.90;86.80;;;;;;5018096;28;20014;-78
2023/08/17 01:33:08;;;;;;;16.52;14.27;;;17.90;86.80;;;;;;5015810;28;20544;-78
2023/08/17 01:36:03;;;;;;;16.35;13.50;;;17.90;86.90;;;;;;5001939;28;20033;-79
2023/08/17 01:38:29;;;;;;;15.05;13.48;;;17.80;87.00;;;;;;5005003;28;20030;-79
2023/08/17 01:40:56;;;;;;;15.95;12.93;;;17.80;87.00;;;;;;4993991;28;20028;-78
2023/08/17 01:43:22;;;;;;;18.23;14.13;;;17.80;87.10;;;;;;5003505;28;20065;-78
2023/08/17 01:45:48;;;;;;;14.20;12.15;;;17.80;87.00;;;;;;5012629;28;20230;-78
2023/08/17 01:48:14;;;;;;;18.52;13.90;;;17.80;87.10;;;;;;5020262;28;20354;-78
2023/08/17 01:50:39;;;;;;;16.05;12.82;;;17.80;87.20;;;;;;5015819;28;20085;-78
2023/08/17 01:53:05;;;;;;;15.60;12.93;;;17.70;87.30;;;;;;5000735;28;20048;-78
2023/08/17 01:55:31;;;;;;;15.40;13.77;;;17.70;87.30;;;;;;5016323;28;20045;-78
2023/08/17 01:57:56;;;;;;;15.32;12.43;;;17.80;87.30;;;;;;5009204;28;20049;-78
2023/08/17 02:00:22;;;;;;;13.63;12.23;;;17.70;87.20;;;;;;4998606;28;20132;-78
2023/08/17 02:02:48;;;;;;;18.63;12.70;;;17.70;87.30;;;;;;5014004;28;20457;-78
2023/08/17 02:05:13;;;;;;;16.05;12.18;;;17.70;87.20;;;;;;4989968;28;20516;-78
2023/08/17 02:07:39;;;;;;;15.45;11.95;;;17.70;87.20;;;;;;4987355;28;20380;-78
2023/08/17 02:10:05;;;;;;;13.38;11.98;;;17.70;87.20;;;;;;5002943;28;20026;-77
2023/08/17 02:12:31;;;;;;;14.18;11.15;;;17.60;87.30;;;;;;4990482;28;20097;-77
2023/08/17 02:14:57;;;;;;;15.38;11.85;;;17.60;87.30;;;;;;5006256;28;20046;-77
2023/08/17 02:17:22;;;;;;;14.68;10.98;;;17.60;87.40;;;;;;4990337;28;20042;-77
2023/08/17 02:19:48;;;;;;;13.90;11.05;;;17.70;87.20;;;;;;4986111;28;20407;-78
2023/08/17 02:22:14;;;;;;;14.07;11.02;;;17.70;87.20;;;;;;4987496;28;20367;-78
2023/08/17 02:24:40;;;;;;;16.00;11.55;;;17.60;87.20;;;;;;4984051;28;20224;-79
2023/08/17 02:27:07;;;;;;;14.07;11.20;;;17.60;87.20;;;;;;4992644;28;20029;-78
2023/08/17 02:29:33;;;;;;;12.57;10.77;;;17.60;87.30;;;;;;5010295;28;20026;-78
2023/08/17 02:31:59;;;;;;;14.75;10.10;;;17.60;87.10;;;;;;5020885;28;20378;-79
2023/08/17 02:34:24;;;;;;;13.27;10.38;;;17.60;87.10;;;;;;5017425;28;20385;-78
2023/08/17 02:36:50;;;;;;;12.75;10.23;;;17.60;87.00;;;;;;5025023;28;20378;-78
2023/08/17 02:39:16;;;;;;;13.38;9.43;;;17.50;87.00;;;;;;5000464;28;20542;-78
2023/08/17 02:41:41;;;;;;;13.25;9.57;;;17.50;86.90;;;;;;4998956;28;20050;-78
2023/08/17 02:44:07;;;;;;;13.98;9.80;;;17.50;87.00;;;;;;4999343;28;20021;-78
2023/08/17 02:46:33;;;;;;;12.57;8.73;;;17.50;87.10;;;;;;4990606;28;20096;-78
2023/08/17 02:48:59;;;;;;;16.00;9.52;;;17.50;87.10;;;;;;4981641;28;20109;-78
2023/08/17 02:51:24;;;;;;;11.93;9.27;;;17.40;87.20;;;;;;4993760;28;20042;-78
2023/08/17 02:53:50;;;;;;;13.68;9.27;;;17.40;87.20;;;;;;4987400;28;20037;-79
2023/08/17 02:56:16;;;;;;;11.50;9.52;;;17.30;87.20;;;;;;4993357;28;20058;-80
2023/08/17 02:58:41;;;;;;;14.65;9.63;;;17.30;87.20;;;;;;4983281;28;20045;-78
2023/08/17 03:01:08;;;;;;;13.35;9.43;;;17.30;87.40;;;;;;4988123;28;20042;-78
2023/08/17 03:03:34;;;;;;;14.40;9.68;;;17.30;87.40;;;;;;4985148;28;20534;-79
2023/08/17 03:06:00;;;;;;;15.60;9.40;;;17.30;87.30;;;;;;5002873;28;20022;-78
2023/08/17 03:08:25;;;;;;;13.02;9.48;;;17.30;87.30;;;;;;5020347;28;20701;-78
2023/08/17 03:10:51;;;;;;;13.40;9.25;;;17.30;87.40;;;;;;5009934;28;20036;-78
2023/08/17 03:13:17;;;;;;;13.82;10.07;;;17.40;87.40;;;;;;5010147;28;20030;-78
2023/08/17 03:15:42;;;;;;;14.50;10.07;;;17.40;87.40;;;;;;4992592;28;20050;-78
2023/08/17 03:18:08;;;;;;;15.10;10.10;;;17.30;87.40;;;;;;5019668;28;20035;-79
2023/08/17 03:20:34;;;;;;;12.68;10.15;;;17.30;87.40;;;;;;5019959;28;20063;-78
2023/08/17 03:22:59;;;;;;;17.52;10.93;;;17.30;87.30;;;;;;5018961;28;20037;-78
2023/08/17 03:25:25;;;;;;;11.95;9.27;;;17.30;87.30;;;;;;5016542;28;20040;-78
2023/08/17 03:27:51;;;;;;;14.48;10.05;;;17.30;87.40;;;;;;5019120;28;20033;-78
2023/08/17 03:30:16;;;;;;;14.63;10.57;;;17.30;87.40;;;;;;4999954;28;20122;-78
2023/08/17 03:32:42;;;;;;;13.30;9.48;;;17.20;87.50;;;;;;4989154;28;20093;-78
2023/08/17 03:35:08;;;;;;;13.07;10.43;;;17.10;87.60;;;;;;5018290;28;20095;-78
2023/08/17 03:37:34;;;;;;;15.75;10.85;;;17.10;87.60;;;;;;5017230;28;20104;-78
2023/08/17 03:40:00;;;;;;;14.50;10.20;;;17.10;87.60;;;;;;4989346;28;20034;-78
2023/08/17 03:42:26;;;;;;;14.07;10.85;;;17.10;87.70;;;;;;4986788;28;20030;-78
2023/08/17 03:44:52;;;;;;;15.30;11.05;;;17.10;87.70;;;;;;4986548;28;20036;-78
2023/08/17 03:47:18;;;;;;;15.35;10.85;;;17.10;87.80;;;;;;4994784;28;20034;-78
2023/08/17 03:49:44;;;;;;;14.00;10.75;;;17.00;87.80;;;;;;4997092;28;20093;-78
2023/08/17 03:52:10;;;;;;;13.88;10.48;;;17.10;88.00;;;;;;4994408;28;20379;-77
2023/08/17 03:54:36;;;;;;;15.18;10.60;;;17.00;88.00;;;;;;4989669;28;20039;-78
2023/08/17 03:57:02;;;;;;;15.85;10.75;;;17.00;87.90;;;;;;5000689;28;20041;-78
2023/08/17 03:59:28;;;;;;;13.23;9.95;;;17.00;87.90;;;;;;4997921;28;20038;-79
2023/08/17 04:01:53;;;;;;;14.15;10.70;;;17.00;88.00;;;;;;4992478;28;20121;-79
2023/08/17 04:04:19;;;;;;;12.77;10.40;;;16.90;87.90;;;;;;4987819;28;20034;-79
2023/08/17 04:06:45;;;;;;;14.23;9.98;;;16.90;88.00;;;;;;4990070;28;20069;-79
2023/08/17 04:09:11;;;;;;;14.48;10.43;;;17.00;88.10;;;;;;4995612;28;20370;-79
2023/08/17 04:11:36;;;;;;;16.00;10.90;;;16.90;88.10;;;;;;4987455;28;20042;-79
2023/08/17 04:14:03;;;;;;;11.77;9.95;;;16.90;88.10;;;;;;4999291;28;20116;-79
2023/08/17 04:16:29;;;;;;;13.48;10.10;;;16.90;88.00;;;;;;5009500;28;20187;-79
2023/08/17 04:18:54;;;;;;;13.20;9.30;;;16.90;87.90;;;;;;5006383;28;20108;-79
2023/08/17 04:21:20;;;;;;;12.02;9.80;;;16.90;88.00;;;;;;4988082;28;20096;-80
2023/08/17 04:23:46;;;;;;;13.43;9.93;;;17.00;87.90;;;;;;4984547;28;20073;-79
2023/08/17 04:26:12;;;;;;;14.73;10.80;;;16.90;87.80;;;;;;4987747;28;20121;-79
2023/08/17 04:28:38;;;;;;;13.25;9.05;;;16.90;87.80;;;;;;5003803;28;20057;-79
2023/08/17 04:31:04;;;;;;;11.65;9.93;;;16.80;87.90;;;;;;5009743;28;20066;-79
2023/08/17 04:33:29;;;;;;;14.88;9.57;;;16.80;87.90;;;;;;5010773;28;20391;-79
2023/08/17 04:35:55;;;;;;;11.90;9.82;;;16.90;87.90;;;;;;5007847;28;20069;-79
2023/08/17 04:38:21;;;;;;;14.95;10.27;;;16.80;87.80;;;;;;4998655;28;20048;-80
2023/08/17 04:40:46;;;;;;;14.38;10.05;;;16.90;87.70;;;;;;5005724;28;20034;-79
2023/08/17 04:43:12;;;;;;;14.38;10.25;;;16.80;87.70;;;;;;5003980;28;20022;-79
2023/08/17 04:45:38;;;;;;;12.48;10.10;;;16.80;87.70;;;;;;4991122;28;20047;-79
2023/08/17 04:48:05;;;;;;;14.50;9.88;;;16.80;87.70;;;;;;4989694;28;20018;-78
2023/08/17 04:50:31;;;;;;;13.05;9.80;;;16.80;87.70;;;;;;5012161;28;20129;-79
2023/08/17 04:52:57;;;;;;;16.58;11.05;;;16.80;87.80;;;;;;5009239;28;20490;-79
2023/08/17 04:55:23;;;;;;;15.25;9.80;;;16.80;87.70;;;;;;5011084;28;20042;-79
2023/08/17 04:57:48;;;;;;;15.48;10.35;;;16.90;87.80;;;;;;5011740;28;20021;-79
2023/08/17 05:00:15;;;;;;;14.00;10.02;;;16.90;87.60;;;;;;4999872;28;20044;-78
2023/08/17 05:02:41;;;;;;;14.73;9.70;;;16.90;87.60;;;;;;5004587;28;20084;-79
2023/08/17 05:05:09;;;;;;;12.25;9.63;;;16.90;87.50;;;;;;5015573;28;20046;-79
2023/08/17 05:07:35;;;;;;;14.93;10.45;;;16.90;87.40;;;;;;5014535;28;20348;-79
2023/08/17 05:10:01;;;;;;;11.95;9.63;;;17.00;87.40;;;;;;5004547;28;20482;-79
2023/08/17 05:12:27;;;;;;;11.82;9.73;;;17.00;87.40;;;;;;5012506;28;20422;-79
2023/08/17 05:14:53;;;;;;;16.27;9.75;;;17.00;87.30;;;;;;5009896;28;20038;-79
2023/08/17 05:17:19;;;;;;;15.07;9.93;;;17.10;87.10;;;;;;5008118;28;20030;-79
2023/08/17 05:19:44;;;;;;;12.18;9.00;;;17.10;86.90;;;;;;5002956;28;20039;-78
2023/08/17 05:22:11;;;;;;;16.55;9.68;;;17.10;86.90;;;;;;5008855;28;20447;-77
2023/08/17 05:24:37;;;;;;;15.18;9.55;;;17.10;86.70;;;;;;5008352;28;20143;-79
2023/08/17 05:27:03;;;;;;;12.75;8.88;;;17.10;86.70;;;;;;5017707;28;20025;-79
2023/08/17 05:29:29;;;;;;;11.73;8.25;;;17.10;86.60;;;;;;5008261;28;20037;-78
2023/08/17 05:31:54;;;;;;;15.35;9.50;;;17.20;86.70;;;;;;5013004;28;20080;-79
2023/08/17 05:34:20;;;;;;;12.00;8.80;;;17.30;86.30;;;;;;5008009;28;20451;-79
2023/08/17 05:36:46;;;;;;;11.63;8.25;;;17.30;86.10;;;;;;5013969;28;20038;-79
2023/08/17 05:39:11;;;;;;;13.45;9.07;;;17.30;86.10;;;;;;5011809;28;20037;-80
2023/08/17 05:41:37;;;;;;;15.73;8.93;;;17.40;85.80;;;;;;4999712;28;20133;-80
2023/08/17 05:44:03;;;;;;;13.38;8.98;;;17.40;85.70;;;;;;4999365;28;20040;-78
2023/08/17 05:46:29;;;;;;;14.85;9.18;;;17.50;85.60;;;;;;5013164;28;20113;-79
2023/08/17 05:48:54;;;;;;;10.90;8.18;;;17.60;85.40;;;;;;5014664;28;20474;-79
2023/08/17 05:51:20;;;;;;;12.20;8.85;;;17.60;85.30;;;;;;5011881;28;20123;-79
2023/08/17 05:53:46;;;;;;;11.15;8.32;;;17.60;84.90;;;;;;5009313;28;20050;-78
2023/08/17 05:56:11;;;;;;;14.13;8.77;;;17.60;84.80;;;;;;5008887;28;20085;-79
2023/08/17 05:58:37;;;;;;;12.05;9.07;;;17.60;84.70;;;;;;5017853;28;20080;-79
2023/08/17 06:01:07;;;;;;;14.48;9.40;;;17.50;84.90;;;;;;5017251;28;20041;-79
2023/08/17 06:03:33;;;;;;;14.43;9.07;;;17.60;85.30;;;;;;5005659;28;20106;-78
2023/08/17 06:05:59;;;;;;;14.18;9.27;;;17.60;85.00;;;;;;5017166;28;20041;-79
2023/08/17 06:08:25;;;;;;;13.18;8.75;;;17.50;85.00;;;;;;5014350;28;20413;-79
2023/08/17 06:10:50;;;;;;;13.40;8.68;;;17.60;85.00;;;;;;4990759;28;20121;-78
2023/08/17 06:13:16;;;;;;;14.23;9.43;;;17.60;85.00;;;;;;4995336;28;20034;-79
2023/08/17 06:15:42;;;;;;;13.30;9.50;;;17.70;84.90;;;;;;4987762;28;20459;-79
2023/08/17 06:18:07;;;;;;;12.88;9.02;;;17.70;85.10;;;;;;4988390;28;20034;-80
2023/08/17 06:20:33;;;;;;;14.80;9.65;;;17.90;84.80;;;;;;4988233;28;20037;-78
2023/08/17 06:22:58;;;;;;;10.77;7.88;;;17.80;84.50;;;;;;4997454;28;20034;-78
2023/08/17 06:25:25;;;;;;;13.38;9.05;;;17.90;84.60;;;;;;4985018;28;20042;-79
2023/08/17 06:27:51;;;;;;;14.45;8.57;;;18.00;84.40;;;;;;4984954;28;20435;-79
2023/08/17 06:30:17;;;;;;;15.43;8.77;;;18.10;84.20;;;;;;4987925;28;20037;-79
2023/08/17 06:32:43;;;;;;;11.82;8.45;;;18.20;83.60;;;;;;4994233;28;20129;-79
2023/08/17 06:35:10;;;;;;;14.57;8.73;;;18.30;83.10;;;;;;5009242;28;20441;-80
2023/08/17 06:37:35;;;;;;;14.10;8.77;;;18.30;83.00;;;;;;5022876;28;20060;-79
2023/08/17 06:40:03;;;;;;;15.25;8.98;;;18.30;83.20;;;;;;5021400;28;20446;-78
2023/08/17 06:42:28;;;;;;;13.02;8.55;;;18.30;83.10;;;;;;5003376;28;20331;-80
2023/08/17 06:44:54;;;;;;;14.13;8.63;;;18.40;82.60;;;;;;5033017;28;20061;-79
2023/08/17 06:47:20;;;;;;;12.13;8.13;;;18.60;83.00;;;;;;5012059;28;20249;-79
2023/08/17 06:49:45;;;;;;;12.80;7.82;;;18.80;82.50;;;;;;5013324;28;20069;-80
2023/08/17 06:52:11;;;;;;;13.73;8.32;;;18.80;81.50;;;;;;5014619;28;20497;-79
2023/08/17 06:54:37;;;;;;;18.13;8.50;;;18.90;81.30;;;;;;5011755;28;20022;-79
2023/08/17 06:57:03;;;;;;;14.60;7.50;;;19.10;81.50;;;;;;5023799;28;20497;-79
2023/08/17 06:59:28;;;;;;;16.00;8.30;;;19.20;80.90;;;;;;5011184;28;20055;-79
2023/08/17 07:01:54;;;;;;;11.90;7.13;;;19.20;80.50;;;;;;5019019;28;20167;-79
2023/08/17 07:04:20;;;;;;;15.85;7.63;;;19.50;80.10;;;;;;4998277;28;20114;-79
2023/08/17 07:06:45;;;;;;;13.98;7.82;;;19.40;78.90;;;;;;4992242;28;20046;-79
2023/08/17 07:09:12;;;;;;;10.95;6.93;;;19.40;78.80;;;;;;5001854;28;20144;-79
2023/08/17 07:11:38;;;;;;;12.77;7.93;;;19.50;78.90;;;;;;4982985;28;20038;-78
2023/08/17 07:14:06;;;;;;;11.00;7.38;;;19.60;78.80;;;;;;4985625;28;20027;-79
2023/08/17 07:16:32;;;;;;;13.35;6.82;;;19.60;77.10;;;;;;4979990;28;20431;-80
2023/08/17 07:18:58;;;;;;;10.63;6.38;;;19.70;76.80;;;;;;4978809;28;20027;-79
2023/08/17 07:21:23;;;;;;;15.27;7.03;;;19.80;76.60;;;;;;4985289;28;20034;-79
2023/08/17 07:23:50;;;;;;;11.55;6.72;;;19.90;76.10;;;;;;4986978;28;20477;-79
2023/08/17 07:26:16;;;;;;;13.45;5.72;;;19.90;75.70;;;;;;4986372;28;20030;-79
2023/08/17 07:28:41;;;;;;;10.90;5.95;;;19.90;75.70;;;;;;4990253;28;20508;-79
2023/08/17 07:31:07;;;;;;;9.73;5.45;;;20.10;75.30;;;;;;5011986;28;20065;-79
2023/08/17 07:33:33;;;;;;;15.18;6.65;;;20.20;73.90;;;;;;5009851;28;20062;-79
2023/08/17 07:35:58;;;;;;;9.40;5.65;;;20.30;74.80;;;;;;5015164;28;20528;-80
2023/08/17 07:38:24;;;;;;;12.00;6.53;;;20.40;74.30;;;;;;5019187;28;20040;-80
2023/08/17 07:40:50;;;;;;;11.00;6.03;;;20.30;73.40;;;;;;5007520;28;20038;-80
2023/08/17 07:43:16;;;;;;;10.68;5.80;;;20.40;73.10;;;;;;5006013;28;20483;-79
2023/08/17 07:45:41;;;;;;;10.23;5.45;;;20.30;73.50;;;;;;5013388;28;20169;-79
2023/08/17 07:48:07;;;;;;;9.95;5.43;;;20.50;72.90;;;;;;5005327;28;20049;-79
2023/08/17 07:50:32;;;;;;;10.52;5.55;;;20.60;72.40;;;;;;5013291;28;20030;-79
2023/08/17 07:52:58;;;;;;;9.23;5.38;;;20.70;72.20;;;;;;5009568;28;20090;-79
2023/08/17 07:55:25;;;;;;;9.85;5.82;;;20.70;71.80;;;;;;4985717;28;20471;-80
2023/08/17 07:57:50;;;;;;;10.18;4.80;;;20.40;71.60;;;;;;4993070;28;20030;-79
2023/08/17 08:00:16;;;;;;;9.90;5.25;;;20.50;72.10;;;;;;4987173;28;20146;-79
2023/08/17 08:02:42;;;;;;;9.25;5.10;;;20.60;70.90;;;;;;4982800;28;20030;-79
2023/08/17 08:05:08;;;;;;;10.15;4.93;;;20.60;71.40;;;;;;4986388;28;20466;-79
2023/08/17 08:07:34;;;;;;;10.43;5.18;;;20.40;72.90;;;;;;4985755;28;20030;-79
2023/08/17 08:09:59;;;;;;;9.13;4.85;;;20.40;73.10;;;;;;4983742;28;20133;-79
2023/08/17 08:12:25;;;;;;;9.75;4.72;;;20.40;72.40;;;;;;4987575;28;20433;-79
2023/08/17 08:14:51;;;;;;;7.95;4.88;;;20.60;73.00;;;;;;4990381;28;20038;-80
2023/08/17 08:17:17;;;;;;;8.82;5.40;;;20.80;72.50;;;;;;5002892;28;20564;-79
2023/08/17 08:19:42;;;;;;;11.05;5.22;;;21.00;71.00;;;;;;5017719;28;20576;-79
2023/08/17 08:22:08;;;;;;;9.93;5.47;;;20.80;70.70;;;;;;5013386;28;20037;-79
2023/08/17 08:24:34;;;;;;;12.02;6.13;;;20.80;71.10;;;;;;5009209;28;20049;-79
2023/08/17 08:27:01;;;;;;;10.82;5.65;;;20.60;71.60;;;;;;4997258;28;20035;-79
2023/08/17 08:29:27;;;;;;;11.30;5.57;;;20.70;72.20;;;;;;5001365;28;20065;-79
2023/08/17 08:31:53;;;;;;;10.45;5.63;;;20.80;72.10;;;;;;4989719;28;20440;-79
2023/08/17 08:34:19;;;;;;;11.68;5.47;;;21.00;71.30;;;;;;5000032;28;20757;-79
2023/08/17 08:36:45;;;;;;;10.40;5.55;;;21.10;71.50;;;;;;4996656;28;20046;-80
2023/08/17 08:39:12;;;;;;;8.63;4.85;;;21.40;70.70;;;;;;5007642;28;20038;-79
2023/08/17 08:41:38;;;;;;;13.82;5.93;;;21.70;70.40;;;;;;5012619;28;20033;-79
2023/08/17 08:44:04;;;;;;;10.25;5.75;;;21.80;68.70;;;;;;5022749;28;20060;-80
2023/08/17 08:46:32;;;;;;;12.27;6.15;;;21.60;69.30;;;;;;5007917;28;20557;-81
2023/08/17 08:48:58;;;;;;;13.98;6.32;;;21.60;69.00;;;;;;5010971;28;20088;-79
2023/08/17 08:51:30;;;;;;;11.95;5.88;;;21.10;70.20;;;;;;5014363;28;20483;-79
2023/08/17 08:54:03;;;;;;;12.35;6.68;;;21.00;71.60;;;;;;5019544;28;20060;-79
2023/08/17 08:56:33;;;;;;;15.82;7.70;;;20.80;71.60;;;;;;5014994;28;20033;-79
2023/08/17 08:59:02;;;;;;;14.68;7.07;;;20.50;73.10;;;;;;5016273;28;20034;-79
2023/08/17 09:01:31;;;;;;;14.25;7.05;;;20.70;72.80;;;;;;5013045;28;20029;-80
2023/08/17 09:04:00;;;;;;;14.55;7.20;;;20.60;73.00;;;;;;5013986;28;20129;-80
2023/08/17 09:06:27;;;;;;;14.40;7.75;;;20.90;72.50;;;;;;5017469;28;20037;-79
2023/08/17 09:08:53;;;;;;;16.13;7.25;;;20.90;71.70;;;;;;5007811;28;20100;-80
2023/08/17 09:11:19;;;;;;;14.45;7.55;;;20.70;72.70;;;;;;5015211;28;20106;-79
2023/08/17 09:13:44;;;;;;;12.20;6.05;;;21.00;72.10;;;;;;5006436;28;20133;-79
2023/08/17 09:16:10;;;;;;;12.20;6.28;;;21.10;72.20;;;;;;5018033;28;20080;-80
2023/08/17 09:18:36;;;;;;;12.30;6.85;;;21.10;71.90;;;;;;5005766;28;20645;-80
2023/08/17 09:21:02;;;;;;;11.02;5.95;;;21.30;70.70;;;;;;5014110;28;20021;-79
2023/08/17 09:23:27;;;;;;;15.63;7.10;;;21.40;70.60;;;;;;5013740;28;20037;-80
2023/08/17 09:25:57;;;;;;;17.25;7.30;;;21.50;71.00;;;;;;5018976;28;20409;-79
2023/08/17 09:28:23;;;;;;;17.95;6.93;;;21.30;71.10;;;;;;5011025;28;20124;-79
2023/08/17 09:30:54;;;;;;;13.73;7.60;;;21.50;70.40;;;;;;5019618;28;20070;-80
2023/08/17 09:33:24;;;;;;;13.05;7.43;;;21.60;70.70;;;;;;5006304;28;20064;-80
2023/08/17 09:35:51;;;;;;;15.35;7.90;;;21.50;71.00;;;;;;5008608;28;20029;-79
2023/08/17 09:38:18;;;;;;;16.55;8.13;;;21.50;71.20;;;;;;5017269;28;20049;-79
2023/08/17 09:40:44;;;;;;;14.50;7.72;;;21.40;71.50;;;;;;4984249;28;20117;-79
2023/08/17 09:43:10;;;;;;;15.85;7.70;;;21.50;71.30;;;;;;4982054;28;20424;-79
2023/08/17 09:45:38;;;;;;;18.13;9.32;;;21.60;70.20;;;;;;4998745;28;20033;-79
2023/08/17 09:48:04;;;;;;;19.20;8.70;;;21.70;70.10;;;;;;5011529;28;20454;-79
2023/08/17 09:50:30;;;;;;;13.75;6.60;;;21.50;70.70;;;;;;5009297;28;20014;-79
2023/08/17 09:52:55;;;;;;;16.77;7.72;;;21.60;71.10;;;;;;5005862;28;20156;-79
2023/08/17 09:55:24;;;;;;;13.93;8.68;;;21.80;69.80;;;;;;4992522;28;20022;-79
2023/08/17 09:57:51;;;;;;;14.88;8.40;;;22.10;69.10;;;;;;4990669;28;20481;-80
2023/08/17 10:00:19;;;;;;;14.73;8.75;;;22.20;69.50;;;;;;5015574;28;20029;-79
2023/08/17 10:02:47;;;;;;;13.57;7.82;;;22.10;69.80;;;;;;5011943;28;20115;-78
2023/08/17 10:05:16;;;;;;;13.25;7.38;;;22.20;69.80;;;;;;5020338;28;20359;-79
2023/08/17 10:07:45;;;;;;;14.00;8.07;;;22.50;68.70;;;;;;5012183;28;20026;-79
2023/08/17 10:10:12;;;;;;;13.63;8.52;;;22.60;68.60;;;;;;5015261;28;20030;-79
2023/08/17 10:12:47;;;;;;;15.40;9.95;;;23.10;67.70;;;;;;5019086;28;20378;-79
2023/08/17 10:15:15;;;;;;;18.92;9.88;;;23.60;64.60;;;;;;5010838;28;20022;-80
2023/08/17 10:18:20;;;;;;;16.17;9.10;;;23.30;67.00;;;;;;5013227;28;20108;-79
2023/08/17 10:20:59;;;;;;;12.05;7.30;;;23.10;67.00;;;;;;4997068;28;20050;-79
2023/08/17 10:23:26;;;;;;;14.27;9.13;;;23.70;67.60;;;;;;5004710;28;20420;-79
2023/08/17 10:25:53;;;;;;;14.20;9.40;;;23.30;66.00;;;;;;5014947;28;20116;-80
2023/08/17 10:28:22;;;;;;;15.15;9.02;;;22.80;67.80;;;;;;5018553;28;20061;-79
2023/08/17 10:30:48;;;;;;;15.82;9.20;;;23.00;67.00;;;;;;5015143;28;20068;-79
2023/08/17 10:33:15;;;;;;;15.02;8.75;;;23.40;66.30;;;;;;5015181;28;20109;-79
2023/08/17 10:35:42;;;;;;;15.27;9.27;;;23.50;66.20;;;;;;5013669;28;20034;-79
2023/08/17 10:38:08;;;;;;;15.98;9.43;;;23.60;66.20;;;;;;5018619;28;20444;-79
2023/08/17 10:40:39;;;;;;;13.98;8.45;;;23.60;64.80;;;;;;5008402;28;20486;-80
2023/08/17 10:43:05;;;;;;;12.60;8.05;;;23.50;66.40;;;;;;5011748;28;20073;-80
2023/08/17 10:45:34;;;;;;;12.13;9.00;;;23.40;67.40;;;;;;5012637;28;20041;-80
2023/08/17 10:48:08;;;;;;;15.20;9.18;;;23.80;66.60;;;;;;5012348;28;20136;-79
2023/08/17 10:50:38;;;;;;;13.35;9.88;;;23.80;66.00;;;;;;4991878;28;20419;-79
2023/08/17 10:53:09;;;;;;;14.30;9.48;;;24.00;65.00;;;;;;4987426;28;20029;-79
2023/08/17 10:55:37;;;;;;;13.95;8.52;;;23.80;64.90;;;;;;4987614;28;20022;-79
2023/08/17 10:58:04;;;;;;;13.23;8.27;;;24.40;64.50;;;;;;4982175;28;20026;-80
2023/08/17 11:00:37;;;;;;;12.68;8.55;;;24.50;64.40;;;;;;4987748;28;20038;-80
2023/08/17 11:03:17;;;;;;;13.88;7.63;;;24.40;63.30;;;;;;4980904;28;20031;-79
2023/08/17 11:05:53;;;;;;;12.73;8.20;;;24.40;64.70;;;;;;4989277;28;20175;-80
2023/08/17 11:08:29;;;;;;;11.50;8.52;;;24.50;63.90;;;;;;4983498;28;20101;-79
2023/08/17 11:10:59;;;;;;;13.55;8.57;;;24.20;63.30;;;;;;4992759;28;20045;-79
2023/08/17 11:13:29;;;;;;;13.25;8.10;;;24.10;64.60;;;;;;4991835;28;20038;-80
2023/08/17 11:15:55;;;;;;;14.05;8.98;;;24.40;65.50;;;;;;4994107;28;20069;-80
2023/08/17 11:18:21;;;;;;;12.98;10.05;;;24.50;63.90;;;;;;4986095;28;20105;-79
2023/08/17 11:20:48;;;;;;;15.60;9.30;;;24.30;64.00;;;;;;4993704;28;20091;-79
2023/08/17 11:23:14;;;;;;;15.60;9.63;;;24.40;64.60;;;;;;4994008;28;20026;-79
2023/08/17 11:25:42;;;;;;;13.95;9.55;;;24.20;64.10;;;;;;5014239;28;20072;-79
2023/08/17 11:28:08;;;;;;;16.80;11.05;;;24.10;64.80;;;;;;5008076;28;20076;-79
2023/08/17 11:30:37;;;;;;;15.43;11.77;;;24.20;65.20;;;;;;5013791;28;20069;-79
2023/08/17 11:33:03;;;;;;;14.23;10.52;;;24.20;65.40;;;;;;5012941;28;20049;-79
2023/08/17 11:35:28;;;;;;;13.73;10.05;;;24.20;65.80;;;;;;5012545;28;20018;-79
2023/08/17 11:37:54;;;;;;;15.35;9.88;;;24.00;65.30;;;;;;5017348;28;20021;-79
2023/08/17 11:40:20;;;;;;;14.07;10.60;;;24.00;65.70;;;;;;5013587;28;20064;-78
2023/08/17 11:42:46;;;;;;;14.63;10.07;;;24.00;65.50;;;;;;5018416;28;20030;-79
2023/08/17 11:45:12;;;;;;;14.50;10.57;;;24.00;65.80;;;;;;5009854;28;20490;-77
2023/08/17 11:47:39;;;;;;;14.35;10.27;;;24.00;65.00;;;;;;5014334;28;20398;-79
2023/08/17 11:50:08;;;;;;;13.20;9.23;;;24.00;65.60;;;;;;5008037;28;20132;-78
2023/08/17 11:52:34;;;;;;;12.18;9.00;;;24.20;65.30;;;;;;5009629;28;20044;-79
2023/08/17 11:55:00;;;;;;;14.35;9.80;;;24.20;65.20;;;;;;5016577;28;20395;-79
2023/08/17 11:57:26;;;;;;;13.73;10.32;;;24.10;65.50;;;;;;5013179;28;20474;-79
2023/08/17 11:59:56;;;;;;;17.65;10.23;;;24.10;65.10;;;;;;5012826;28;20362;-79
2023/08/17 12:02:24;;;;;;;13.02;9.10;;;23.60;66.20;;;;;;5020806;28;20037;-78
2023/08/17 12:04:51;;;;;;;13.13;8.43;;;23.60;67.00;;;;;;5019355;28;20036;-79
2023/08/17 12:07:17;;;;;;;11.07;8.32;;;24.10;65.40;;;;;;5001912;28;20482;-79
2023/08/17 12:09:44;;;;;;;12.73;8.20;;;24.10;65.20;;;;;;5007571;28;20070;-79
2023/08/17 12:12:10;;;;;;;13.80;8.07;;;24.30;64.90;;;;;;5006923;28;20033;-78
2023/08/17 12:14:36;;;;;;;13.13;8.25;;;24.30;64.40;;;;;;5006764;28;20418;-79
2023/08/17 12:17:03;;;;;;;14.35;8.40;;;24.00;64.70;;;;;;5003964;28;20040;-79
2023/08/17 12:19:29;;;;;;;12.45;8.45;;;24.20;65.60;;;;;;4999755;28;20023;-79
2023/08/17 12:21:57;;;;;;;11.93;9.32;;;24.60;64.10;;;;;;5002049;28;20568;-78
2023/08/17 12:24:26;;;;;;;13.30;8.60;;;24.40;63.80;;;;;;5002487;28;20038;-78
2023/08/17 12:26:52;;;;;;;15.70;10.65;;;24.50;65.00;;;;;;4993799;28;20125;-79
2023/08/17 12:29:17;;;;;;;14.63;9.95;;;24.60;62.90;;;;;;4998051;28;20053;-78
2023/08/17 12:31:44;;;;;;;13.55;10.38;;;24.50;64.20;;;;;;5010011;28;20048;-79